• Join FlightAware (Why Join?)
  • Login
  • US Flag 
02:51AM EST


 

Airport Tracker/Info


-or-


 

Live Flight TrackerFlight Track Log ✈ CMF5HF ✈ 06-Jun-2014 ✈ KPNE - KBCB

Flight Track Log - Related Links

Times and Time Zones

All times are in EDT time to prevent confusion due to time zone crossing. See the CMF5HF flight status page for this flight to view local times or setup timezone preferences in your user account.

Time Position Orientation Groundspeed Altitude Reporting Facility
EDT Latitude Longitude Course Direction KTS MPH feet Rate Location/Type
01:04PM 40.0833 -75.0167 360° North 102 117 500  Level Philadelphia TRACON
01:04PM 40.0833 -75.0167 270° West 104 120 700 1,560 Climbing Philadelphia TRACON
01:05PM 40.0833 -75.0667 270° West 145 167 2,400 1,440 Climbing Philadelphia TRACON
01:06PM 40.0667 -75.1167 246° West 155 178 3,700 1,200 Climbing Philadelphia TRACON
01:07PM 40.0500 -75.1667 246° West 159 183 4,900 660 Climbing Philadelphia TRACON
01:08PM 40.0333 -75.2333 252° West 199 229 5,000 780 Climbing Philadelphia TRACON
01:09PM 40.0000 -75.3000 237° Southwest 188 216 6,500 1,380 Climbing Philadelphia TRACON
01:10PM 39.9833 -75.3500 247° West 166 191 7,900 1,200 Climbing Philadelphia TRACON
01:11PM 39.9667 -75.4167 252° West 178 205 9,000 600 Climbing Philadelphia TRACON
01:12PM 39.9497 -75.4528 239° Southwest 209 241 9,000 360 Level New York Center
01:13PM 39.9256 -75.5322 248° West 209 241 9,700 1,020 Climbing New York Center
01:14PM 39.9067 -75.5878 246° West 202 232 11,100 1,140 Climbing New York Center
01:15PM 39.8853 -75.6539 247° West 188 216 12,000 540 Climbing New York Center
01:16PM 39.8783 -75.7211 262° West 207 238 12,200 840 Climbing New York Center
01:17PM 39.8728 -75.8019 265° West 216 249 13,700 1,380 Climbing New York Center
01:18PM 39.8661 -75.8583 261° West 191 220 15,000 1,440 Climbing New York Center
01:19PM 39.8494 -75.9111 248° West 158 182 16,600 960 Climbing New York Center
01:20PM 39.8322 -75.9667 248° West 158 182 17,000 180 Climbing New York Center
01:21PM 39.8106 -76.0325 247° West 182 209 17,000 420 Level New York Center
01:22PM 39.7889 -76.0958 246° West 206 237 17,900 840 Climbing New York Center
01:23PM 39.7672 -76.1617 247° West 211 243 18,800 900 Climbing New York Center
01:24PM 39.7450 -76.2383 249° West 206 237 19,800 540 Climbing New York Center
01:25PM 39.7211 -76.2986 243° Southwest 201 231 20,000 60 Climbing New York Center
01:26PM 39.6989 -76.3725 249° West 207 238 20,000  Level New York Center
01:27PM 39.6767 -76.4461 249° West 219 252 20,000  Level New York Center
01:28PM 39.6500 -76.5250 246° West 229 264 20,000  Level New York Center
01:29PM 39.6233 -76.6008 245° Southwest 234 269 20,000  Level New York Center
01:30PM 39.5986 -76.6797 248° West 234 269 20,000  Level New York Center
01:31PM 39.5694 -76.7608 245° Southwest 239 275 20,000  Level New York Center
01:31PM 39.5469 -76.8214 244° Southwest 240 276 20,000  Level Washington Center
01:32PM 39.5192 -76.8989 245° Southwest 245 282 20,000  Level Washington Center
01:33PM 39.4931 -76.9792 247° West 245 282 20,000  Level Washington Center
01:34PM 39.4425 -77.0347 220° Southwest 240 276 20,000  Level Washington Center
01:35PM 39.3919 -77.0872 219° Southwest 240 276 20,000  Level Washington Center
01:36PM 39.3411 -77.1453 221° Southwest 245 282 20,000  Level Washington Center
01:37PM 39.2883 -77.1978 218° Southwest 245 282 20,000  Level Washington Center
01:38PM 39.2375 -77.2503 219° Southwest 245 282 20,000  Level Washington Center
01:39PM 39.1867 -77.3028 219° Southwest 245 282 20,000  Level Washington Center
01:40PM 39.1339 -77.3578 219° Southwest 245 282 20,000  Level Washington Center
01:41PM 39.0831 -77.4100 219° Southwest 245 282 20,000  Level Washington Center
01:42PM 39.0281 -77.4672 219° Southwest 239 275 20,000  Level Washington Center
01:43PM 38.9772 -77.5194 219° Southwest 239 275 20,000  Level Washington Center
01:44PM 38.9283 -77.5717 220° Southwest 239 275 20,000  Level Washington Center
01:45PM 38.8797 -77.6183 217° Southwest 239 275 20,000  Level Washington Center
01:46PM 38.8222 -77.6781 219° Southwest 244 281 20,000  Level Washington Center
01:47PM 38.7692 -77.7325 219° Southwest 244 281 20,000  Level Washington Center
01:48PM 38.7289 -77.7764 220° Southwest 244 281 20,000  Level Washington Center
01:49PM 38.6758 -77.8333 220° Southwest 244 281 20,000  Level Washington Center
01:50PM 38.6289 -77.8853 221° Southwest 239 275 20,000  Level Washington Center
01:51PM 38.5900 -77.9531 234° Southwest 234 269 20,000  Level Washington Center
01:52PM 38.5511 -78.0181 233° Southwest 234 269 20,000  Level Washington Center
01:53PM 38.5144 -78.0833 234° Southwest 234 269 20,000  Level Washington Center
01:54PM 38.4756 -78.1483 233° Southwest 234 269 20,000  Level Washington Center
01:55PM 38.4364 -78.2158 233° Southwest 240 276 20,000  Level Washington Center
01:56PM 38.3997 -78.2808 234° Southwest 240 276 20,000  Level Washington Center
01:57PM 38.3586 -78.3456 231° Southwest 240 276 20,000  Level Washington Center
01:58PM 38.3217 -78.4103 234° Southwest 240 276 20,000  Level Washington Center
01:59PM 38.2825 -78.4775 233° Southwest 240 276 20,000  Level Washington Center
02:00PM 38.2456 -78.5394 233° Southwest 240 276 20,000  Level Washington Center
02:01PM 38.2019 -78.6144 234° Southwest 240 276 20,000  Level Washington Center
02:02PM 38.1628 -78.6789 232° Southwest 240 276 20,000  Level Washington Center
02:03PM 38.1236 -78.7408 231° Southwest 240 276 20,000  Level Washington Center
02:04PM 38.0822 -78.8075 232° Southwest 245 282 20,000  Level Washington Center
02:05PM 38.0472 -78.8642 232° Southwest 240 276 20,000  Level Washington Center
02:06PM 38.0081 -78.9283 232° Southwest 240 276 20,000  Level Washington Center
02:07PM 37.9642 -79.0028 233° Southwest 245 282 20,000  Level Washington Center
02:08PM 37.9269 -79.0617 231° Southwest 244 281 20,000  Level Washington Center
02:09PM 37.8936 -79.1364 241° Southwest 244 281 20,000  Level Washington Center
02:10PM 37.8683 -79.2142 248° West 239 275 20,000  Level Washington Center
02:11PM 37.8517 -79.2817 253° West 229 264 20,000  Level Washington Center
02:12PM 37.8261 -79.3644 249° West 229 264 20,000  Level Washington Center
02:13PM 37.8053 -79.4319 249° West 229 264 20,000  Level Washington Center
02:14PM 37.7764 -79.4881 237° Southwest 229 264 20,000  Level Washington Center
02:14PM 37.7756 -79.5092 267° West 229 264 20,000 -1,080 Level Washington Center
02:15PM 37.7336 -79.5806 233° Southwest 251 289 18,700 -1,320 Descending Washington Center
02:16PM 37.6897 -79.6489 231° Southwest 265 305 17,400 -1,260 Descending Washington Center
02:17PM 37.6500 -79.7100 231° Southwest 265 305 16,200 -1,320 Descending Washington Center
02:18PM 37.6108 -79.7603 225° Southwest 238 274 15,100 -1,500 Descending Washington Center
02:18PM 37.6058 -79.7808 253° West 254 292 14,800 -1,320 Descending Washington Center
02:19PM 37.5617 -79.8492 231° Southwest 247 284 13,500 -1,260 Descending Washington Center
02:20PM 37.5217 -79.9150 233° Southwest 247 284 12,300 -1,260 Descending Washington Center
02:21PM 37.4822 -79.9731 229° Southwest 247 284 11,100 -1,320 Descending Washington Center
02:22PM 37.4486 -80.0311 234° Southwest 240 276 10,000 -1,320 Descending Washington Center
02:22PM 37.4422 -80.0386 223° Southwest 247 284 9,800 -960 Descending Washington Center
02:24PM 37.3763 -80.0468 186° South  Level FlightAware Approximate
02:31PM 37.2000 -80.4000 247° West  Level FlightAware Approximate
02:32PM 37.2076 -80.4078 247° West  Level Estimated
02:33PM 37.2076 -80.4078 247° West  Level Estimated
02:34PM 37.2076 -80.4078 247° West  Level Estimated